createdAt,value
2023-05-06T00:00:41.574Z,2.77
2023-05-06T00:03:47.225Z,3.17
2023-05-06T00:06:54.313Z,3.03
2023-05-06T00:09:59.363Z,2.70
2023-05-06T00:13:04.607Z,2.93
2023-05-06T00:16:10.067Z,2.77
2023-05-06T00:19:15.169Z,3.47
2023-05-06T00:22:21.585Z,2.77
2023-05-06T00:25:26.763Z,3.13
2023-05-06T00:28:31.816Z,3.03
2023-05-06T00:31:36.902Z,2.83
2023-05-06T00:34:42.073Z,2.57
2023-05-06T00:37:49.085Z,3.03
2023-05-06T00:40:54.101Z,3.07
2023-05-06T00:43:59.253Z,2.70
2023-05-06T00:47:04.458Z,2.80
2023-05-06T00:50:10.993Z,2.77
2023-05-06T00:53:21.769Z,3.97
2023-05-06T00:56:26.965Z,2.60
2023-05-06T00:59:32.013Z,2.80
2023-05-06T01:02:46.354Z,2.83
2023-05-06T01:05:56.427Z,2.70
2023-05-06T01:09:08.948Z,3.03
2023-05-06T01:12:21.608Z,3.10
2023-05-06T01:15:32.207Z,2.63
2023-05-06T01:18:38.625Z,2.70
2023-05-06T01:21:44.009Z,2.70
2023-05-06T01:24:50.754Z,3.10
2023-05-06T01:27:55.984Z,2.60
2023-05-06T01:31:04.916Z,2.57
2023-05-06T01:34:16.732Z,2.70
2023-05-06T01:37:27.064Z,2.80
2023-05-06T01:40:35.505Z,2.80
2023-05-06T01:43:43.125Z,2.90
2023-05-06T01:46:48.428Z,2.90
2023-05-06T01:49:54.237Z,3.03
2023-05-06T01:53:03.228Z,2.80
2023-05-06T01:56:09.748Z,3.10
2023-05-06T01:59:16.316Z,2.40
2023-05-06T02:02:21.459Z,2.90
2023-05-06T02:05:26.871Z,3.10
2023-05-06T02:08:34.678Z,3.80
2023-05-06T02:11:42.072Z,2.93
2023-05-06T02:14:47.122Z,2.90
2023-05-06T02:17:52.265Z,2.90
2023-05-06T02:20:57.342Z,3.37
2023-05-06T02:24:02.383Z,2.73
2023-05-06T02:27:08.948Z,3.03
2023-05-06T02:30:14.722Z,3.20
2023-05-06T02:33:20.251Z,3.50
2023-05-06T02:36:25.347Z,3.17
2023-05-06T02:39:32.891Z,3.00
2023-05-06T02:42:40.075Z,3.40
2023-05-06T02:45:47.191Z,3.27
2023-05-06T02:48:52.172Z,2.77
2023-05-06T02:51:57.342Z,3.10
2023-05-06T02:55:02.877Z,3.10
2023-05-06T02:58:09.394Z,2.97
2023-05-06T03:01:16.028Z,3.10
2023-05-06T03:04:21.834Z,3.47
2023-05-06T03:07:27.208Z,2.93
2023-05-06T03:10:32.202Z,3.13
2023-05-06T03:13:39.704Z,3.77
2023-05-06T03:16:44.786Z,3.30
2023-05-06T03:19:50.802Z,3.30
2023-05-06T03:22:56.514Z,2.90
2023-05-06T03:26:02.424Z,3.67
2023-05-06T03:29:09.415Z,3.03
2023-05-06T03:32:14.987Z,3.30
2023-05-06T03:35:22.606Z,3.10
2023-05-06T03:38:31.723Z,2.87
2023-05-06T03:41:40.638Z,2.90
2023-05-06T03:44:48.082Z,3.13
2023-05-06T03:47:54.518Z,2.70
2023-05-06T03:51:01.331Z,2.47
2023-05-06T03:54:06.619Z,2.60
2023-05-06T03:57:13.813Z,2.80
2023-05-06T04:00:20.948Z,2.80
2023-05-06T04:03:31.025Z,3.23
2023-05-06T04:06:37.052Z,2.63
2023-05-06T04:09:42.181Z,2.70
2023-05-06T04:12:47.663Z,2.70
2023-05-06T04:15:59.243Z,3.33
2023-05-06T04:19:11.159Z,2.50
2023-05-06T04:22:16.991Z,2.43
2023-05-06T04:25:23.194Z,2.67
2023-05-06T04:28:38.797Z,2.50
2023-05-06T04:31:46.363Z,2.77
2023-05-06T04:34:52.663Z,2.47
2023-05-06T04:37:58.025Z,2.63
2023-05-06T04:41:08.161Z,2.60
2023-05-06T04:44:14.155Z,2.80
2023-05-06T04:47:23.580Z,2.77
2023-05-06T04:50:30.577Z,2.37
2023-05-06T04:53:35.828Z,2.73
2023-05-06T04:56:41.004Z,2.60
2023-05-06T04:59:48.224Z,2.40
2023-05-06T05:02:54.769Z,2.27
2023-05-06T05:06:00.181Z,2.43
2023-05-06T05:09:05.846Z,2.20
2023-05-06T05:12:14.437Z,1.70
2023-05-06T05:15:23.927Z,1.90
2023-05-06T05:18:30.982Z,1.80
2023-05-06T05:21:41.601Z,1.50
2023-05-06T05:24:49.251Z,1.40
2023-05-06T05:27:55.286Z,1.70
2023-05-06T05:31:04.421Z,1.43
2023-05-06T05:34:14.273Z,1.60
2023-05-06T05:37:19.386Z,1.60
2023-05-06T05:40:25.023Z,1.30
2023-05-06T05:43:31.861Z,1.27
2023-05-06T05:46:39.420Z,1.40
2023-05-06T05:49:46.516Z,1.20
2023-05-06T05:52:52.006Z,1.17
2023-05-06T05:55:58.136Z,1.40
2023-05-06T05:59:04.363Z,1.20
2023-05-06T06:02:09.582Z,1.20
2023-05-06T06:05:17.303Z,1.13
2023-05-06T06:08:22.445Z,1.20
2023-05-06T06:11:30.250Z,1.03
2023-05-06T06:14:36.550Z,1.37
2023-05-06T06:17:43.464Z,1.20
2023-05-06T06:20:52.986Z,1.30
2023-05-06T06:23:58.430Z,1.23
2023-05-06T06:27:03.589Z,1.20
2023-05-06T06:30:09.877Z,1.10
2023-05-06T06:33:20.664Z,1.37
2023-05-06T06:36:27.174Z,1.17
2023-05-06T06:39:32.254Z,1.20
2023-05-06T06:42:37.872Z,1.10
2023-05-06T06:46:01.738Z,1.10
2023-05-06T06:49:07.084Z,1.30
2023-05-06T06:52:15.070Z,1.20
2023-05-06T06:55:20.197Z,1.10
2023-05-06T06:58:25.391Z,1.30
2023-05-06T07:01:30.488Z,1.30
2023-05-06T07:04:35.740Z,1.20
2023-05-06T07:07:42.193Z,1.17
2023-05-06T07:10:47.273Z,1.20
2023-05-06T07:13:52.427Z,1.50
2023-05-06T07:16:57.605Z,1.30
2023-05-06T07:20:03.043Z,1.27
2023-05-06T07:23:09.550Z,1.85
2023-05-06T07:26:14.735Z,1.25
2023-05-06T07:29:19.958Z,1.40
2023-05-06T07:32:25.186Z,1.20
2023-05-06T07:35:30.510Z,1.08
2023-05-06T07:38:37.114Z,1.20
2023-05-06T07:41:42.690Z,1.00
2023-05-06T07:44:47.864Z,1.13
2023-05-06T07:47:53.049Z,1.38
2023-05-06T07:50:58.682Z,1.20
2023-05-06T07:54:05.535Z,1.40
2023-05-06T07:57:18.925Z,1.50
2023-05-06T08:00:24.094Z,1.25
2023-05-06T08:03:29.479Z,1.27
2023-05-06T08:06:34.763Z,1.20
2023-05-06T08:09:41.255Z,1.27
2023-05-06T08:12:46.632Z,1.42
2023-05-06T08:15:51.948Z,1.20
2023-05-06T08:18:57.153Z,1.15
2023-05-06T08:22:02.370Z,1.02
2023-05-06T08:25:10.300Z,1.10
2023-05-06T08:28:16.977Z,1.10
2023-05-06T08:31:22.298Z,1.30
2023-05-06T08:34:27.580Z,1.70
2023-05-06T08:37:32.847Z,1.60
2023-05-06T08:40:44.605Z,1.30
2023-05-06T08:43:50.479Z,1.10
2023-05-06T08:46:55.804Z,1.40
2023-05-06T08:50:01.487Z,1.20
2023-05-06T08:53:06.931Z,1.20
2023-05-06T08:56:17.265Z,1.40
2023-05-06T08:59:26.960Z,1.40
2023-05-06T09:02:33.611Z,1.38
2023-05-06T09:05:38.889Z,1.27
2023-05-06T09:08:44.345Z,1.30
2023-05-06T09:11:55.211Z,1.17
2023-05-06T09:15:00.287Z,1.77
2023-05-06T09:18:05.508Z,1.25
2023-05-06T09:21:11.745Z,1.40
2023-05-06T09:24:20.168Z,1.20
2023-05-06T09:27:28.081Z,1.38
2023-05-06T09:30:33.168Z,1.50
2023-05-06T09:33:38.372Z,1.20
2023-05-06T09:36:43.444Z,1.38
2023-05-06T09:39:48.562Z,1.20
2023-05-06T09:42:55.035Z,1.40
2023-05-06T09:46:02.042Z,1.35
2023-05-06T09:49:07.238Z,1.30
2023-05-06T09:52:13.965Z,1.17
2023-05-06T09:55:20.886Z,1.27
2023-05-06T09:58:28.406Z,1.50
2023-05-06T10:01:37.271Z,1.40
2023-05-06T10:04:43.392Z,1.30
2023-05-06T10:07:50.856Z,2.13
2023-05-06T10:10:56.946Z,1.40
2023-05-06T10:14:03.842Z,1.10
2023-05-06T10:17:10.967Z,1.40
2023-05-06T10:20:16.324Z,2.35
2023-05-06T10:23:27.149Z,1.60
2023-05-06T10:26:32.796Z,1.27
2023-05-06T10:29:39.850Z,1.38
2023-05-06T10:32:45.688Z,1.40
2023-05-06T10:35:54.484Z,1.33
2023-05-06T10:39:02.006Z,1.38
2023-05-06T10:42:07.252Z,1.40
2023-05-06T10:45:16.680Z,1.40
2023-05-06T10:48:21.869Z,1.52
2023-05-06T10:51:28.401Z,1.50
2023-05-06T10:54:33.432Z,1.42
2023-05-06T10:57:42.590Z,1.40
2023-05-06T11:00:55.761Z,1.40
2023-05-06T11:04:08.203Z,1.33
2023-05-06T11:07:14.689Z,1.45
2023-05-06T11:10:33.954Z,1.40
2023-05-06T11:13:39.067Z,1.40
2023-05-06T11:16:52.084Z,1.35
2023-05-06T11:20:20.269Z,1.25
2023-05-06T11:24:04.058Z,1.50
2023-05-06T11:27:09.809Z,1.40
2023-05-06T11:30:17.351Z,1.27
2023-05-06T11:33:24.963Z,1.70
2023-05-06T11:36:30.102Z,1.30
2023-05-06T11:39:40.450Z,1.10
2023-05-06T11:42:46.161Z,1.38
2023-05-06T11:45:51.189Z,1.70
2023-05-06T11:48:57.702Z,1.20
2023-05-06T11:52:03.251Z,1.48
2023-05-06T11:55:11.120Z,1.80
2023-05-06T11:58:17.607Z,1.50
2023-05-06T12:01:22.680Z,1.38
2023-05-06T12:04:29.730Z,1.80
2023-05-06T12:07:34.786Z,2.42
2023-05-06T12:10:40.931Z,1.45
2023-05-06T12:13:46.486Z,1.77
2023-05-06T12:16:53.032Z,1.50
2023-05-06T12:20:01.141Z,1.40
2023-05-06T12:23:09.985Z,1.60
2023-05-06T12:26:15.048Z,1.58
2023-05-06T12:29:20.357Z,1.30
2023-05-06T12:32:25.817Z,1.50
2023-05-06T12:35:33.407Z,1.30
2023-05-06T12:38:38.404Z,1.52
2023-05-06T12:41:44.613Z,1.55
2023-05-06T12:44:49.663Z,1.10
2023-05-06T12:47:55.449Z,1.40
2023-05-06T12:51:02.261Z,1.20
2023-05-06T12:54:30.587Z,1.45
2023-05-06T12:57:35.812Z,1.48
2023-05-06T13:00:40.879Z,1.42
2023-05-06T13:03:46.093Z,1.63
2023-05-06T13:06:53.280Z,1.45
2023-05-06T13:09:58.367Z,1.40
2023-05-06T13:13:03.535Z,1.20
2023-05-06T13:16:10.601Z,2.60
2023-05-06T13:19:28.616Z,1.80
2023-05-06T13:22:50.705Z,1.63
2023-05-06T13:26:13.431Z,2.00
2023-05-06T13:29:20.096Z,1.50
2023-05-06T13:32:25.311Z,2.20
2023-05-06T13:35:31.006Z,1.95
2023-05-06T13:38:37.505Z,1.65
2023-05-06T13:41:42.656Z,1.55
2023-05-06T13:44:47.788Z,1.85
2023-05-06T13:47:53.072Z,1.42
2023-05-06T13:50:58.811Z,1.20
2023-05-06T13:54:06.072Z,1.25
2023-05-06T13:57:11.548Z,1.40
2023-05-06T14:00:17.526Z,1.70
2023-05-06T14:03:22.702Z,1.52
2023-05-06T14:06:27.986Z,2.08
2023-05-06T14:09:34.504Z,3.13
2023-05-06T14:12:39.720Z,1.60
2023-05-06T14:15:44.865Z,2.00
2023-05-06T14:18:50.109Z,2.03
2023-05-06T14:21:55.806Z,6.57
2023-05-06T14:25:02.362Z,5.68
2023-05-06T14:28:07.568Z,4.97
2023-05-06T14:31:14.308Z,2.20
2023-05-06T14:34:19.582Z,1.23
2023-05-06T14:37:24.954Z,1.60
2023-05-06T14:40:31.462Z,1.50
2023-05-06T14:43:36.642Z,1.20
2023-05-06T14:46:41.920Z,1.92
2023-05-06T14:49:47.561Z,2.00
2023-05-06T14:52:54.176Z,2.85
2023-05-06T14:56:01.034Z,1.50
2023-05-06T14:59:06.168Z,2.95
2023-05-06T15:02:12.300Z,2.10
2023-05-06T15:05:17.359Z,1.30
2023-05-06T15:08:22.710Z,4.43
2023-05-06T15:11:29.167Z,1.67
2023-05-06T15:14:34.474Z,1.50
2023-05-06T15:17:41.341Z,1.50
2023-05-06T15:20:46.911Z,1.70
2023-05-06T15:23:52.043Z,1.20
2023-05-06T15:26:58.442Z,1.30
2023-05-06T15:30:04.361Z,1.33
2023-05-06T15:33:10.047Z,1.70
2023-05-06T15:36:15.200Z,1.73
2023-05-06T15:39:20.998Z,1.33
2023-05-06T15:42:27.572Z,1.33
2023-05-06T15:45:32.842Z,1.35
2023-05-06T15:48:38.036Z,1.40
2023-05-06T15:51:43.136Z,1.73
2023-05-06T15:54:49.971Z,1.40
2023-05-06T15:57:59.176Z,1.60
2023-05-06T16:01:06.123Z,1.60
2023-05-06T16:04:11.803Z,1.33
2023-05-06T16:07:17.010Z,1.63
2023-05-06T16:10:22.414Z,1.77
2023-05-06T16:13:28.967Z,2.85
2023-05-06T16:16:34.122Z,1.92
2023-05-06T16:19:39.327Z,1.80
2023-05-06T16:22:50.113Z,4.28
2023-05-06T16:25:55.257Z,2.40
2023-05-06T16:29:01.740Z,2.65
2023-05-06T16:32:07.095Z,3.60
2023-05-06T16:35:14.040Z,1.92
2023-05-06T16:38:19.121Z,1.52
2023-05-06T16:41:24.424Z,1.80
2023-05-06T16:44:30.962Z,1.60
2023-05-06T16:47:36.099Z,1.80
2023-05-06T16:50:41.981Z,2.00
2023-05-06T16:53:46.974Z,1.50
2023-05-06T16:56:52.946Z,1.50
2023-05-06T16:59:59.594Z,1.58
2023-05-06T17:03:05.789Z,1.50
2023-05-06T17:06:13.116Z,1.80
2023-05-06T17:09:18.251Z,1.85
2023-05-06T17:12:23.934Z,5.00
2023-05-06T17:15:30.488Z,1.50
2023-05-06T17:18:35.764Z,1.35
2023-05-06T17:21:40.820Z,1.70
2023-05-06T17:24:45.893Z,1.55
2023-05-06T17:27:51.099Z,1.92
2023-05-06T17:30:57.502Z,1.98
2023-05-06T17:34:03.892Z,1.80
2023-05-06T17:37:09.162Z,1.80
2023-05-06T17:40:15.262Z,1.73
2023-05-06T17:43:20.657Z,1.73
2023-05-06T17:46:27.186Z,1.73
2023-05-06T17:49:34.381Z,1.98
2023-05-06T17:52:41.199Z,2.20
2023-05-06T17:55:48.797Z,2.83
2023-05-06T17:58:54.981Z,1.90
2023-05-06T18:02:03.199Z,1.80
2023-05-06T18:05:10.929Z,1.80
2023-05-06T18:08:16.576Z,2.50
2023-05-06T18:11:21.628Z,2.00
2023-05-06T18:14:26.916Z,2.08
2023-05-06T18:17:33.466Z,1.75
2023-05-06T18:20:39.935Z,2.00
2023-05-06T18:23:45.470Z,1.52
2023-05-06T18:26:50.774Z,1.73
2023-05-06T18:29:55.905Z,1.50
2023-05-06T18:33:02.442Z,1.47
2023-05-06T18:36:08.244Z,1.70
2023-05-06T18:39:13.405Z,1.52
2023-05-06T18:42:18.513Z,1.33
2023-05-06T18:45:24.512Z,1.73
2023-05-06T18:48:32.061Z,1.67
2023-05-06T18:51:37.288Z,1.70
2023-05-06T18:54:42.214Z,1.73
2023-05-06T18:57:47.199Z,1.83
2023-05-06T19:00:52.369Z,1.77
2023-05-06T19:03:59.489Z,1.70
2023-05-06T19:07:04.812Z,1.50
2023-05-06T19:10:10.718Z,1.80
2023-05-06T19:13:15.883Z,1.60
2023-05-06T19:16:21.096Z,1.63
2023-05-06T19:19:27.614Z,1.90
2023-05-06T19:22:32.997Z,1.70
2023-05-06T19:25:39.284Z,1.97
2023-05-06T19:28:44.380Z,1.63
2023-05-06T19:31:49.492Z,1.60
2023-05-06T19:34:55.877Z,1.80
2023-05-06T19:38:00.929Z,2.20
2023-05-06T19:41:06.254Z,2.00
2023-05-06T19:44:13.140Z,1.80
2023-05-06T19:47:18.244Z,2.20
2023-05-06T19:50:24.701Z,2.17
2023-05-06T19:53:29.810Z,2.03
2023-05-06T19:56:39.628Z,1.93
2023-05-06T19:59:49.557Z,1.80
2023-05-06T20:02:56.425Z,2.03
2023-05-06T20:06:04.159Z,1.87
2023-05-06T20:09:10.372Z,1.90
2023-05-06T20:12:15.935Z,1.93
2023-05-06T20:15:21.164Z,1.90
2023-05-06T20:18:26.308Z,1.73
2023-05-06T20:21:32.853Z,1.77
2023-05-06T20:24:38.127Z,1.80
2023-05-06T20:27:43.231Z,1.80
2023-05-06T20:30:49.100Z,1.60
2023-05-06T20:33:54.562Z,1.87
2023-05-06T20:37:01.602Z,1.90
2023-05-06T20:40:08.050Z,1.50
2023-05-06T20:43:13.497Z,1.90
2023-05-06T20:46:20.469Z,1.70
2023-05-06T20:49:25.826Z,2.10
2023-05-06T20:52:34.016Z,2.00
2023-05-06T20:55:39.619Z,2.10
2023-05-06T20:58:44.778Z,1.80
2023-05-06T21:01:49.865Z,1.80
2023-05-06T21:04:54.907Z,1.90
2023-05-06T21:08:01.409Z,2.13
2023-05-06T21:11:06.736Z,2.23
2023-05-06T21:14:12.109Z,1.90
2023-05-06T21:17:17.283Z,1.80
2023-05-06T21:20:22.574Z,1.83
2023-05-06T21:23:29.243Z,1.90
2023-05-06T21:26:35.027Z,1.77
2023-05-06T21:29:40.064Z,1.83
2023-05-06T21:32:45.175Z,2.10
2023-05-06T21:35:50.301Z,1.77
2023-05-06T21:39:05.032Z,1.80
2023-05-06T21:42:10.077Z,1.90
2023-05-06T21:45:16.261Z,1.87
2023-05-06T21:48:21.373Z,2.03
2023-05-06T21:51:27.816Z,1.90
2023-05-06T21:54:34.288Z,1.80
2023-05-06T21:57:39.628Z,1.90
2023-05-06T22:00:44.840Z,2.00
2023-05-06T22:03:50.047Z,2.27
2023-05-06T22:06:55.370Z,2.37
2023-05-06T22:10:01.887Z,2.00
2023-05-06T22:13:07.307Z,2.00
2023-05-06T22:16:14.745Z,2.00
2023-05-06T22:19:20.378Z,2.10
2023-05-06T22:22:25.543Z,1.83
2023-05-06T22:25:32.398Z,2.50
2023-05-06T22:28:37.753Z,1.90
2023-05-06T22:31:43.006Z,2.33
2023-05-06T22:34:49.007Z,2.20
2023-05-06T22:37:54.174Z,2.80
2023-05-06T22:41:00.583Z,2.23
2023-05-06T22:44:05.830Z,2.43
2023-05-06T22:47:11.088Z,2.60
2023-05-06T22:50:16.309Z,2.83
2023-05-06T22:53:21.657Z,2.57
2023-05-06T22:56:28.087Z,3.17
2023-05-06T22:59:33.273Z,2.77
2023-05-06T23:02:38.395Z,2.40
2023-05-06T23:05:43.457Z,2.40
2023-05-06T23:08:48.530Z,2.50
2023-05-06T23:11:55.003Z,2.50
2023-05-06T23:15:00.167Z,2.40
2023-05-06T23:18:05.359Z,2.60
2023-05-06T23:21:13.607Z,2.40
2023-05-06T23:24:18.764Z,2.40
2023-05-06T23:27:25.326Z,2.90
2023-05-06T23:30:30.665Z,2.50
2023-05-06T23:33:35.709Z,2.43
2023-05-06T23:36:40.782Z,2.70
2023-05-06T23:39:46.892Z,2.73
2023-05-06T23:42:55.388Z,2.60
2023-05-06T23:46:00.563Z,2.57
2023-05-06T23:49:05.942Z,2.47
2023-05-06T23:52:13.293Z,2.10
2023-05-06T23:55:19.087Z,2.43
2023-05-06T23:58:25.607Z,2.30
